createdAt,value
2022-11-13T00:00:02.231Z,100.00
2022-11-13T00:02:28.639Z,100.00
2022-11-13T00:04:55.098Z,100.00
2022-11-13T00:07:21.630Z,100.00
2022-11-13T00:09:48.121Z,100.00
2022-11-13T00:12:14.815Z,100.00
2022-11-13T00:14:41.655Z,100.00
2022-11-13T00:17:07.975Z,100.00
2022-11-13T00:19:34.276Z,100.00
2022-11-13T00:22:00.672Z,100.00
2022-11-13T00:24:27.159Z,100.00
2022-11-13T00:26:53.469Z,100.00
2022-11-13T00:29:19.815Z,100.00
2022-11-13T00:31:46.231Z,100.00
2022-11-13T00:34:45.871Z,100.00
2022-11-13T00:36:58.964Z,100.00
2022-11-13T00:39:25.274Z,100.00
2022-11-13T00:41:51.583Z,100.00
2022-11-13T00:44:17.934Z,100.00
2022-11-13T00:46:44.302Z,100.00
2022-11-13T00:49:10.731Z,100.00
2022-11-13T00:51:37.071Z,100.00
2022-11-13T00:54:03.554Z,100.00
2022-11-13T00:56:29.967Z,100.00
2022-11-13T00:58:56.318Z,100.00
2022-11-13T01:01:22.758Z,100.00
2022-11-13T01:03:49.351Z,100.00
2022-11-13T01:06:22.627Z,100.00
2022-11-13T01:08:49.381Z,100.00
2022-11-13T01:11:17.416Z,100.00
2022-11-13T01:13:44.335Z,100.00
2022-11-13T01:16:11.491Z,100.00
2022-11-13T01:18:38.062Z,100.00
2022-11-13T01:21:05.914Z,100.00
2022-11-13T01:23:32.496Z,100.00
2022-11-13T01:26:16.692Z,100.00
2022-11-13T01:28:43.473Z,100.00
2022-11-13T01:31:11.252Z,100.00
2022-11-13T01:33:37.920Z,100.00
2022-11-13T01:36:06.141Z,100.00
2022-11-13T01:38:36.166Z,100.00
2022-11-13T01:41:03.847Z,100.00
2022-11-13T01:43:32.145Z,100.00
2022-11-13T01:45:58.561Z,100.00
2022-11-13T01:48:38.774Z,100.00
2022-11-13T01:51:09.282Z,100.00
2022-11-13T01:53:36.087Z,100.00
2022-11-13T01:56:02.520Z,100.00
2022-11-13T01:58:29.242Z,100.00
2022-11-13T02:00:55.789Z,100.00
2022-11-13T02:03:22.112Z,100.00
2022-11-13T02:05:48.479Z,100.00
2022-11-13T02:08:14.810Z,100.00
2022-11-13T02:10:41.130Z,100.00
2022-11-13T02:13:07.499Z,100.00
2022-11-13T02:15:34.755Z,100.00
2022-11-13T02:18:02.767Z,100.00
2022-11-13T02:20:52.109Z,100.00
2022-11-13T02:23:41.806Z,100.00
2022-11-13T02:26:09.639Z,100.00
2022-11-13T02:28:36.270Z,100.00
2022-11-13T02:31:10.455Z,100.00
2022-11-13T02:33:36.899Z,100.00
2022-11-13T02:36:04.684Z,100.00
2022-11-13T02:38:32.172Z,100.00
2022-11-13T02:40:58.679Z,100.00
2022-11-13T02:43:24.982Z,100.00
2022-11-13T02:45:52.555Z,100.00
2022-11-13T02:48:18.877Z,100.00
2022-11-13T02:50:45.562Z,100.00
2022-11-13T02:53:11.888Z,100.00
2022-11-13T02:55:38.274Z,100.00
2022-11-13T02:58:04.695Z,100.00
2022-11-13T03:00:32.984Z,100.00
2022-11-13T03:02:59.397Z,100.00
2022-11-13T03:05:25.720Z,100.00
2022-11-13T03:07:52.052Z,100.00
2022-11-13T03:10:18.431Z,100.00
2022-11-13T03:12:44.738Z,100.00
2022-11-13T03:15:11.096Z,100.00
2022-11-13T03:17:37.473Z,100.00
2022-11-13T03:20:04.717Z,100.00
2022-11-13T03:22:31.252Z,100.00
2022-11-13T03:24:57.706Z,100.00
2022-11-13T03:27:24.135Z,100.00
2022-11-13T03:29:50.626Z,100.00
2022-11-13T03:32:16.962Z,100.00
2022-11-13T03:34:43.396Z,100.00
2022-11-13T03:37:09.718Z,100.00
2022-11-13T03:39:36.035Z,100.00
2022-11-13T03:42:02.431Z,100.00
2022-11-13T03:44:28.837Z,100.00
2022-11-13T03:46:55.194Z,100.00
2022-11-13T03:49:21.513Z,100.00
2022-11-13T03:51:47.835Z,100.00
2022-11-13T03:54:14.280Z,100.00
2022-11-13T03:56:40.623Z,100.00
2022-11-13T03:59:07.175Z,100.00
2022-11-13T04:01:33.528Z,100.00
2022-11-13T04:04:00.098Z,100.00
2022-11-13T04:06:26.417Z,100.00
2022-11-13T04:08:53.980Z,100.00
2022-11-13T04:11:20.325Z,100.00
2022-11-13T04:13:46.721Z,100.00
2022-11-13T04:16:13.023Z,100.00
2022-11-13T04:18:39.343Z,100.00
2022-11-13T04:21:05.802Z,100.00
2022-11-13T04:23:32.267Z,100.00
2022-11-13T04:25:58.674Z,100.00
2022-11-13T04:28:25.107Z,100.00
2022-11-13T04:30:53.699Z,100.00
2022-11-13T04:33:20.434Z,100.00
2022-11-13T04:35:46.823Z,100.00
2022-11-13T04:38:13.162Z,100.00
2022-11-13T04:40:39.978Z,100.00
2022-11-13T04:43:06.313Z,100.00
2022-11-13T04:45:33.061Z,100.00
2022-11-13T04:47:59.395Z,100.00
2022-11-13T04:50:25.973Z,100.00
2022-11-13T04:52:52.510Z,100.00
2022-11-13T04:55:19.040Z,100.00
2022-11-13T04:57:45.447Z,100.00
2022-11-13T05:00:12.473Z,100.00
2022-11-13T05:02:38.793Z,100.00
2022-11-13T05:05:05.739Z,100.00
2022-11-13T05:07:32.230Z,100.00
2022-11-13T05:09:58.555Z,100.00
2022-11-13T05:12:24.898Z,100.00
2022-11-13T05:14:51.260Z,100.00
2022-11-13T05:17:17.631Z,100.00
2022-11-13T05:19:43.952Z,100.00
2022-11-13T05:22:10.484Z,100.00
2022-11-13T05:24:36.884Z,100.00
2022-11-13T05:27:03.212Z,100.00
2022-11-13T05:29:29.558Z,100.00
2022-11-13T05:31:55.898Z,100.00
2022-11-13T05:34:22.278Z,100.00
2022-11-13T05:36:48.703Z,100.00
2022-11-13T05:39:15.107Z,100.00
2022-11-13T05:41:41.589Z,100.00
2022-11-13T05:44:07.906Z,100.00
2022-11-13T05:46:35.254Z,100.00
2022-11-13T05:49:01.896Z,100.00
2022-11-13T05:51:29.333Z,100.00
2022-11-13T05:53:56.164Z,100.00
2022-11-13T05:56:24.051Z,100.00
2022-11-13T05:58:51.059Z,100.00
2022-11-13T06:01:17.347Z,100.00
2022-11-13T06:03:44.346Z,100.00
2022-11-13T06:06:11.919Z,100.00
2022-11-13T06:08:38.866Z,100.00
2022-11-13T06:11:09.756Z,100.00
2022-11-13T06:13:36.341Z,100.00
2022-11-13T06:16:07.276Z,100.00
2022-11-13T06:18:34.096Z,100.00
2022-11-13T06:21:01.469Z,100.00
2022-11-13T06:23:28.951Z,100.00
2022-11-13T06:26:00.418Z,100.00
2022-11-13T06:28:27.220Z,100.00
2022-11-13T06:30:53.977Z,100.00
2022-11-13T06:33:20.308Z,100.00
2022-11-13T06:35:46.720Z,100.00
2022-11-13T06:38:13.695Z,100.00
2022-11-13T06:40:40.080Z,100.00
2022-11-13T06:43:06.514Z,100.00
2022-11-13T06:45:32.894Z,100.00
2022-11-13T06:47:59.219Z,100.00
2022-11-13T06:50:25.574Z,100.00
2022-11-13T06:52:51.877Z,100.00
2022-11-13T06:55:18.181Z,100.00
2022-11-13T06:57:44.497Z,100.00
2022-11-13T07:00:11.533Z,100.00
2022-11-13T07:02:37.844Z,100.00
2022-11-13T07:05:04.280Z,100.00
2022-11-13T07:07:30.635Z,100.00
2022-11-13T07:09:57.008Z,98.66
2022-11-13T07:12:23.353Z,94.48
2022-11-13T07:14:49.664Z,94.56
2022-11-13T07:17:16.203Z,94.53
2022-11-13T07:19:42.630Z,97.87
2022-11-13T07:22:08.991Z,96.49
2022-11-13T07:24:35.352Z,90.05
2022-11-13T07:27:01.668Z,88.31
2022-11-13T07:29:28.053Z,94.92
2022-11-13T07:31:54.504Z,88.14
2022-11-13T07:34:22.195Z,82.31
2022-11-13T07:36:48.491Z,91.21
2022-11-13T07:39:14.919Z,89.49
2022-11-13T07:41:41.249Z,93.22
2022-11-13T07:44:09.422Z,87.78
2022-11-13T07:46:36.323Z,79.87
2022-11-13T07:49:02.744Z,78.76
2022-11-13T07:51:29.080Z,82.07
2022-11-13T07:53:55.442Z,79.52
2022-11-13T07:56:23.417Z,77.87
2022-11-13T07:58:50.056Z,79.16
2022-11-13T08:01:16.610Z,77.34
2022-11-13T08:03:43.053Z,75.66
2022-11-13T08:06:09.456Z,75.66
2022-11-13T08:08:37.574Z,73.72
2022-11-13T08:11:07.773Z,73.89
2022-11-13T08:13:34.791Z,73.68
2022-11-13T08:16:01.926Z,73.25
2022-11-13T08:18:31.147Z,74.63
2022-11-13T08:20:57.718Z,72.22
2022-11-13T08:23:24.221Z,71.21
2022-11-13T08:25:51.678Z,71.31
2022-11-13T08:28:18.047Z,70.93
2022-11-13T08:30:46.010Z,70.89
2022-11-13T08:33:13.370Z,68.65
2022-11-13T08:35:40.773Z,66.12
2022-11-13T08:38:08.267Z,67.47
2022-11-13T08:40:35.513Z,69.74
2022-11-13T08:43:02.939Z,66.71
2022-11-13T08:45:34.380Z,66.35
2022-11-13T08:48:01.691Z,65.73
2022-11-13T08:50:28.982Z,64.68
2022-11-13T08:52:57.042Z,63.87
2022-11-13T08:55:23.628Z,64.35
2022-11-13T08:57:50.776Z,62.82
2022-11-13T09:00:31.399Z,62.83
2022-11-13T09:03:00.438Z,62.81
2022-11-13T09:05:26.956Z,60.00
2022-11-13T09:07:57.600Z,59.76
2022-11-13T09:10:24.584Z,60.29
2022-11-13T09:13:01.961Z,60.65
2022-11-13T09:15:36.938Z,59.42
2022-11-13T09:18:03.738Z,59.89
2022-11-13T09:20:30.841Z,57.70
2022-11-13T09:23:05.695Z,59.38
2022-11-13T09:25:38.412Z,59.42
2022-11-13T09:28:07.204Z,58.79
2022-11-13T09:30:34.851Z,59.37
2022-11-13T09:33:02.451Z,58.28
2022-11-13T09:35:36.017Z,57.97
2022-11-13T09:38:11.396Z,58.25
2022-11-13T09:40:38.116Z,60.13
2022-11-13T09:43:20.592Z,59.87
2022-11-13T09:45:47.357Z,59.60
2022-11-13T09:48:31.091Z,59.43
2022-11-13T09:51:00.280Z,60.59
2022-11-13T09:53:27.880Z,59.97
2022-11-13T09:56:13.060Z,60.65
2022-11-13T09:58:51.889Z,60.62
2022-11-13T10:01:37.129Z,60.46
2022-11-13T10:04:11.980Z,61.00
2022-11-13T10:06:43.594Z,60.27
2022-11-13T10:09:22.616Z,61.36
2022-11-13T10:11:50.999Z,61.74
2022-11-13T10:14:19.369Z,59.46
2022-11-13T10:16:49.329Z,57.13
2022-11-13T10:19:34.627Z,57.85
2022-11-13T10:22:32.969Z,58.27
2022-11-13T10:25:10.275Z,58.74
2022-11-13T10:27:37.321Z,57.98
2022-11-13T10:30:04.208Z,56.64
2022-11-13T10:32:31.760Z,56.26
2022-11-13T10:35:00.229Z,57.34
2022-11-13T10:37:50.396Z,56.17
2022-11-13T10:40:36.795Z,57.67
2022-11-13T10:43:19.213Z,57.99
2022-11-13T10:46:00.354Z,59.61
2022-11-13T10:48:27.049Z,58.60
2022-11-13T10:50:55.398Z,58.29
2022-11-13T10:53:21.770Z,59.27
2022-11-13T10:55:52.154Z,59.98
2022-11-13T10:58:19.332Z,61.36
2022-11-13T11:00:49.083Z,61.22
2022-11-13T11:03:18.750Z,59.84
2022-11-13T11:05:52.364Z,60.14
2022-11-13T11:08:21.232Z,60.51
2022-11-13T11:11:15.350Z,61.87
2022-11-13T11:13:41.723Z,60.55
2022-11-13T11:16:08.625Z,60.55
2022-11-13T11:18:36.084Z,61.18
2022-11-13T11:21:07.078Z,60.87
2022-11-13T11:23:55.582Z,60.91
2022-11-13T11:26:35.596Z,60.86
2022-11-13T11:29:01.963Z,61.70
2022-11-13T11:31:37.554Z,61.01
2022-11-13T11:34:15.386Z,62.20
2022-11-13T11:36:47.941Z,61.00
2022-11-13T11:39:26.897Z,61.33
2022-11-13T11:41:58.407Z,61.11
2022-11-13T11:44:31.982Z,63.19
2022-11-13T11:46:58.463Z,60.49
2022-11-13T11:49:26.179Z,61.96
2022-11-13T11:52:06.895Z,61.90
2022-11-13T11:54:41.950Z,61.66
2022-11-13T11:57:14.417Z,62.09
2022-11-13T11:59:46.687Z,60.46
2022-11-13T12:02:32.075Z,61.30
2022-11-13T12:05:03.573Z,60.69
2022-11-13T12:07:41.727Z,61.59
2022-11-13T12:10:15.066Z,60.54
2022-11-13T12:13:01.076Z,59.67
2022-11-13T12:15:27.492Z,58.89
2022-11-13T12:18:13.969Z,59.79
2022-11-13T12:20:49.504Z,60.26
2022-11-13T12:23:28.142Z,60.74
2022-11-13T12:25:59.799Z,62.89
2022-11-13T12:28:27.332Z,61.77
2022-11-13T12:31:12.719Z,62.52
2022-11-13T12:33:40.164Z,63.35
2022-11-13T12:36:09.255Z,64.70
2022-11-13T12:38:35.705Z,64.68
2022-11-13T12:41:13.828Z,65.15
2022-11-13T12:43:55.964Z,64.02
2022-11-13T12:46:32.597Z,65.86
2022-11-13T12:49:01.059Z,63.98
2022-11-13T12:51:37.551Z,65.90
2022-11-13T12:54:05.071Z,63.73
2022-11-13T12:56:33.847Z,62.59
2022-11-13T12:59:29.332Z,64.15
2022-11-13T13:02:19.879Z,64.72
2022-11-13T13:05:01.433Z,65.53
2022-11-13T13:07:42.993Z,65.66
2022-11-13T13:10:15.579Z,66.31
2022-11-13T13:13:01.678Z,63.81
2022-11-13T13:15:31.815Z,64.67
2022-11-13T13:18:25.261Z,65.83
2022-11-13T13:20:57.565Z,65.67
2022-11-13T13:23:28.700Z,66.55
2022-11-13T13:26:13.373Z,66.85
2022-11-13T13:28:41.895Z,68.09
2022-11-13T13:31:27.153Z,68.54
2022-11-13T13:34:05.858Z,67.83
2022-11-13T13:36:40.240Z,67.80
2022-11-13T13:39:15.521Z,67.41
2022-11-13T13:41:48.582Z,67.48
2022-11-13T13:44:30.288Z,67.88
2022-11-13T13:46:57.266Z,69.02
2022-11-13T13:49:24.714Z,66.96
2022-11-13T13:51:52.975Z,66.81
2022-11-13T13:54:23.694Z,67.52
2022-11-13T13:56:50.177Z,67.98
2022-11-13T13:59:22.593Z,66.58
2022-11-13T14:01:56.279Z,66.45
2022-11-13T14:04:23.449Z,67.70
2022-11-13T14:06:51.762Z,68.99
2022-11-13T14:09:21.195Z,70.92
2022-11-13T14:11:50.657Z,70.44
2022-11-13T14:14:21.105Z,69.87
2022-11-13T14:16:48.313Z,72.93
2022-11-13T14:19:14.821Z,76.23
2022-11-13T14:21:43.212Z,76.05
2022-11-13T14:24:14.717Z,79.33
2022-11-13T14:26:41.295Z,78.18
2022-11-13T14:29:21.248Z,77.68
2022-11-13T14:31:47.892Z,77.91
2022-11-13T14:34:16.864Z,77.89
2022-11-13T14:36:45.661Z,79.37
2022-11-13T14:39:24.034Z,80.31
2022-11-13T14:41:53.554Z,82.38
2022-11-13T14:44:30.898Z,81.27
2022-11-13T14:47:06.198Z,83.24
2022-11-13T14:49:34.331Z,82.55
2022-11-13T14:52:01.344Z,84.54
2022-11-13T14:54:53.184Z,85.66
2022-11-13T14:57:18.390Z,83.73
2022-11-13T14:59:44.805Z,86.51
2022-11-13T15:02:15.256Z,88.22
2022-11-13T15:04:41.618Z,87.82
2022-11-13T15:07:24.550Z,87.95
2022-11-13T15:09:51.051Z,94.54
2022-11-13T15:12:17.400Z,94.13
2022-11-13T15:14:43.771Z,92.48
2022-11-13T15:17:14.874Z,96.60
2022-11-13T15:19:41.311Z,97.21
2022-11-13T15:22:26.727Z,100.00
2022-11-13T15:24:54.165Z,100.00
2022-11-13T15:27:21.626Z,98.45
2022-11-13T15:29:47.972Z,100.00
2022-11-13T15:32:15.859Z,100.00
2022-11-13T15:34:42.371Z,100.00
2022-11-13T15:37:12.883Z,100.00
2022-11-13T15:39:40.340Z,100.00
2022-11-13T15:42:12.235Z,100.00
2022-11-13T15:44:39.029Z,100.00
2022-11-13T15:47:15.843Z,100.00
2022-11-13T15:49:51.447Z,100.00
2022-11-13T15:52:31.963Z,100.00
2022-11-13T15:54:58.880Z,100.00
2022-11-13T15:57:26.950Z,100.00
2022-11-13T15:59:53.452Z,100.00
2022-11-13T16:02:19.910Z,100.00
2022-11-13T16:04:55.987Z,100.00
2022-11-13T16:07:26.402Z,100.00
2022-11-13T16:09:52.781Z,100.00
2022-11-13T16:12:19.158Z,100.00
2022-11-13T16:14:45.470Z,100.00
2022-11-13T16:17:20.303Z,100.00
2022-11-13T16:19:52.469Z,100.00
2022-11-13T16:22:20.380Z,100.00
2022-11-13T16:24:46.966Z,100.00
2022-11-13T16:27:14.655Z,100.00
2022-11-13T16:29:41.091Z,100.00
2022-11-13T16:32:13.432Z,100.00
2022-11-13T16:34:39.757Z,100.00
2022-11-13T16:37:09.595Z,100.00
2022-11-13T16:39:35.990Z,100.00
2022-11-13T16:42:02.443Z,100.00
2022-11-13T16:44:29.879Z,100.00
2022-11-13T16:46:57.219Z,100.00
2022-11-13T16:49:23.631Z,100.00
2022-11-13T16:51:51.563Z,100.00
2022-11-13T16:54:19.934Z,100.00
2022-11-13T16:56:48.290Z,100.00
2022-11-13T16:59:15.709Z,100.00
2022-11-13T17:01:42.061Z,100.00
2022-11-13T17:04:10.756Z,100.00
2022-11-13T17:06:40.275Z,100.00
2022-11-13T17:09:06.771Z,100.00
2022-11-13T17:11:33.492Z,100.00
2022-11-13T17:14:01.300Z,100.00
2022-11-13T17:16:28.665Z,100.00
2022-11-13T17:18:55.062Z,100.00
2022-11-13T17:21:23.629Z,100.00
2022-11-13T17:24:01.432Z,100.00
2022-11-13T17:26:28.436Z,100.00
2022-11-13T17:28:54.839Z,100.00
2022-11-13T17:31:21.848Z,100.00
2022-11-13T17:33:51.790Z,100.00
2022-11-13T17:36:18.135Z,100.00
2022-11-13T17:38:44.470Z,100.00
2022-11-13T17:41:15.254Z,100.00
2022-11-13T17:43:42.423Z,100.00
2022-11-13T17:46:10.809Z,100.00
2022-11-13T17:48:37.709Z,100.00
2022-11-13T17:51:05.355Z,100.00
2022-11-13T17:53:33.026Z,100.00
2022-11-13T17:56:07.127Z,100.00
2022-11-13T17:58:51.892Z,100.00
2022-11-13T18:01:19.817Z,100.00
2022-11-13T18:03:48.722Z,100.00
2022-11-13T18:06:19.554Z,100.00
2022-11-13T18:08:46.816Z,100.00
2022-11-13T18:11:15.755Z,100.00
2022-11-13T18:13:42.692Z,100.00
2022-11-13T18:16:10.556Z,100.00
2022-11-13T18:18:38.935Z,100.00
2022-11-13T18:21:22.499Z,100.00
2022-11-13T18:23:49.697Z,100.00
2022-11-13T18:26:23.111Z,100.00
2022-11-13T18:28:49.545Z,100.00
2022-11-13T18:31:17.681Z,100.00
2022-11-13T18:33:44.393Z,100.00
2022-11-13T18:36:12.909Z,100.00
2022-11-13T18:38:39.627Z,100.00
2022-11-13T18:41:09.943Z,100.00
2022-11-13T18:43:38.745Z,100.00
2022-11-13T18:46:07.361Z,100.00
2022-11-13T18:48:35.773Z,100.00
2022-11-13T18:51:03.659Z,100.00
2022-11-13T18:53:30.755Z,100.00
2022-11-13T18:56:01.004Z,100.00
2022-11-13T18:58:28.855Z,100.00
2022-11-13T19:00:56.081Z,100.00
2022-11-13T19:03:23.626Z,100.00
2022-11-13T19:05:50.363Z,100.00
2022-11-13T19:08:16.852Z,100.00
2022-11-13T19:10:43.305Z,100.00
2022-11-13T19:13:09.751Z,100.00
2022-11-13T19:15:37.410Z,100.00
2022-11-13T19:18:05.871Z,100.00
2022-11-13T19:20:32.206Z,100.00
2022-11-13T19:22:58.515Z,100.00
2022-11-13T19:25:24.975Z,100.00
2022-11-13T19:27:54.061Z,100.00
2022-11-13T19:30:21.463Z,100.00
2022-11-13T19:32:47.847Z,100.00
2022-11-13T19:35:14.314Z,100.00
2022-11-13T19:37:40.691Z,100.00
2022-11-13T19:40:07.470Z,100.00
2022-11-13T19:42:36.117Z,100.00
2022-11-13T19:45:05.968Z,100.00
2022-11-13T19:47:33.335Z,100.00
2022-11-13T19:49:59.695Z,100.00
2022-11-13T19:52:26.220Z,100.00
2022-11-13T19:54:53.940Z,100.00
2022-11-13T19:57:20.266Z,100.00
2022-11-13T19:59:47.707Z,100.00
2022-11-13T20:02:14.419Z,100.00
2022-11-13T20:04:40.773Z,100.00
2022-11-13T20:07:07.288Z,100.00
2022-11-13T20:09:33.653Z,100.00
2022-11-13T20:12:00.196Z,100.00
2022-11-13T20:14:26.551Z,100.00
2022-11-13T20:16:52.952Z,100.00
2022-11-13T20:19:19.552Z,100.00
2022-11-13T20:21:46.022Z,100.00
2022-11-13T20:24:12.366Z,100.00
2022-11-13T20:26:38.757Z,100.00
2022-11-13T20:29:05.128Z,100.00
2022-11-13T20:31:31.527Z,100.00
2022-11-13T20:33:57.866Z,100.00
2022-11-13T20:36:24.378Z,100.00
2022-11-13T20:38:52.046Z,100.00
2022-11-13T20:41:20.693Z,100.00
2022-11-13T20:43:51.021Z,100.00
2022-11-13T20:46:18.379Z,100.00
2022-11-13T20:48:46.148Z,100.00
2022-11-13T20:51:12.457Z,100.00
2022-11-13T20:53:39.319Z,100.00
2022-11-13T20:56:05.823Z,100.00
2022-11-13T20:58:32.550Z,100.00
2022-11-13T21:01:04.114Z,100.00
2022-11-13T21:03:30.810Z,100.00
2022-11-13T21:05:57.162Z,100.00
2022-11-13T21:08:23.552Z,100.00
2022-11-13T21:10:49.877Z,100.00
2022-11-13T21:13:16.726Z,100.00
2022-11-13T21:15:43.044Z,100.00
2022-11-13T21:18:11.662Z,100.00
2022-11-13T21:20:38.043Z,100.00
2022-11-13T21:23:06.254Z,100.00
2022-11-13T21:25:32.683Z,100.00
2022-11-13T21:28:01.130Z,100.00
2022-11-13T21:30:27.493Z,100.00
2022-11-13T21:32:59.967Z,100.00
2022-11-13T21:35:27.155Z,100.00
2022-11-13T21:37:53.982Z,100.00
2022-11-13T21:40:20.671Z,100.00
2022-11-13T21:42:47.114Z,100.00
2022-11-13T21:45:13.629Z,100.00
2022-11-13T21:47:39.947Z,100.00
2022-11-13T21:50:06.516Z,100.00
2022-11-13T21:52:32.849Z,100.00
2022-11-13T21:54:59.169Z,100.00
2022-11-13T21:57:27.065Z,100.00
2022-11-13T21:59:53.412Z,100.00
2022-11-13T22:02:19.752Z,100.00
2022-11-13T22:04:46.304Z,100.00
2022-11-13T22:07:12.666Z,100.00
2022-11-13T22:09:39.043Z,100.00
2022-11-13T22:12:05.376Z,100.00
2022-11-13T22:14:31.699Z,100.00
2022-11-13T22:16:58.015Z,100.00
2022-11-13T22:19:28.375Z,100.00
2022-11-13T22:21:55.665Z,100.00
2022-11-13T22:24:22.005Z,100.00
2022-11-13T22:26:48.544Z,100.00
2022-11-13T22:29:15.074Z,100.00
2022-11-13T22:31:41.436Z,100.00
2022-11-13T22:34:08.809Z,100.00
2022-11-13T22:36:36.601Z,100.00
2022-11-13T22:39:05.244Z,100.00
2022-11-13T22:41:33.410Z,100.00
2022-11-13T22:44:11.799Z,100.00
2022-11-13T22:46:38.350Z,100.00
2022-11-13T22:49:07.143Z,100.00
2022-11-13T22:51:37.305Z,100.00
2022-11-13T22:54:07.757Z,100.00
2022-11-13T22:56:34.782Z,100.00
2022-11-13T22:59:02.018Z,100.00
2022-11-13T23:01:29.491Z,100.00
2022-11-13T23:03:59.860Z,100.00
2022-11-13T23:06:27.981Z,100.00
2022-11-13T23:08:54.719Z,100.00
2022-11-13T23:11:27.990Z,100.00
2022-11-13T23:13:55.669Z,100.00
2022-11-13T23:16:22.874Z,100.00
2022-11-13T23:18:51.977Z,100.00
2022-11-13T23:21:18.518Z,100.00
2022-11-13T23:23:51.159Z,100.00
2022-11-13T23:26:17.903Z,100.00
2022-11-13T23:28:44.742Z,100.00
2022-11-13T23:31:11.097Z,100.00
2022-11-13T23:33:38.247Z,100.00
2022-11-13T23:36:05.834Z,100.00
2022-11-13T23:38:32.284Z,100.00
2022-11-13T23:40:59.832Z,100.00
2022-11-13T23:43:47.769Z,100.00
2022-11-13T23:46:13.309Z,100.00
2022-11-13T23:48:40.272Z,100.00
2022-11-13T23:51:06.803Z,100.00
2022-11-13T23:53:35.299Z,100.00
2022-11-13T23:56:01.672Z,100.00
2022-11-13T23:58:32.343Z,100.00
